sensor_id;sensor_type;location;lat;lon;timestamp;P1;durP1;ratioP1;P2;durP2;ratioP2
20348;SDS011;10332;50.208;18.988;2023-03-16T00:00:54;42.22;;;21.17;;
20348;SDS011;10332;50.208;18.988;2023-03-16T00:03:21;43.88;;;20.65;;
20348;SDS011;10332;50.208;18.988;2023-03-16T00:05:50;43.80;;;20.27;;
20348;SDS011;10332;50.208;18.988;2023-03-16T00:08:19;40.20;;;18.77;;
20348;SDS011;10332;50.208;18.988;2023-03-16T00:10:47;40.92;;;22.33;;
20348;SDS011;10332;50.208;18.988;2023-03-16T00:13:18;51.63;;;23.85;;
20348;SDS011;10332;50.208;18.988;2023-03-16T00:15:53;56.00;;;26.85;;
20348;SDS011;10332;50.208;18.988;2023-03-16T00:18:25;56.67;;;25.97;;
20348;SDS011;10332;50.208;18.988;2023-03-16T00:20:58;53.28;;;24.35;;
20348;SDS011;10332;50.208;18.988;2023-03-16T00:23:31;59.40;;;26.70;;
20348;SDS011;10332;50.208;18.988;2023-03-16T00:26:02;52.33;;;24.67;;
20348;SDS011;10332;50.208;18.988;2023-03-16T00:28:34;57.40;;;28.50;;
20348;SDS011;10332;50.208;18.988;2023-03-16T00:31:03;59.10;;;27.13;;
20348;SDS011;10332;50.208;18.988;2023-03-16T00:33:33;48.13;;;23.20;;
20348;SDS011;10332;50.208;18.988;2023-03-16T00:36:01;60.78;;;29.23;;
20348;SDS011;10332;50.208;18.988;2023-03-16T00:38:31;61.97;;;28.60;;
20348;SDS011;10332;50.208;18.988;2023-03-16T00:41:03;61.33;;;28.25;;
20348;SDS011;10332;50.208;18.988;2023-03-16T00:43:33;53.28;;;24.98;;
20348;SDS011;10332;50.208;18.988;2023-03-16T00:46:13;64.68;;;28.90;;
20348;SDS011;10332;50.208;18.988;2023-03-16T00:48:44;58.40;;;27.42;;
20348;SDS011;10332;50.208;18.988;2023-03-16T00:51:14;56.40;;;27.00;;
20348;SDS011;10332;50.208;18.988;2023-03-16T00:53:43;58.20;;;26.38;;
20348;SDS011;10332;50.208;18.988;2023-03-16T00:56:12;55.10;;;25.60;;
20348;SDS011;10332;50.208;18.988;2023-03-16T00:58:40;55.80;;;26.67;;
20348;SDS011;10332;50.208;18.988;2023-03-16T01:01:14;49.65;;;23.60;;
20348;SDS011;10332;50.208;18.988;2023-03-16T01:03:45;54.58;;;23.83;;
20348;SDS011;10332;50.208;18.988;2023-03-16T01:06:14;52.57;;;25.10;;
20348;SDS011;10332;50.208;18.988;2023-03-16T01:08:45;55.25;;;25.77;;
20348;SDS011;10332;50.208;18.988;2023-03-16T01:11:14;52.70;;;23.25;;
20348;SDS011;10332;50.208;18.988;2023-03-16T01:13:46;42.15;;;21.55;;
20348;SDS011;10332;50.208;18.988;2023-03-16T01:16:16;38.58;;;21.85;;
20348;SDS011;10332;50.208;18.988;2023-03-16T01:18:44;47.55;;;24.02;;
20348;SDS011;10332;50.208;18.988;2023-03-16T01:21:13;41.38;;;20.45;;
20348;SDS011;10332;50.208;18.988;2023-03-16T01:23:41;46.87;;;23.93;;
20348;SDS011;10332;50.208;18.988;2023-03-16T01:26:10;49.78;;;25.33;;
20348;SDS011;10332;50.208;18.988;2023-03-16T01:28:38;42.20;;;19.73;;
20348;SDS011;10332;50.208;18.988;2023-03-16T01:31:07;42.58;;;20.05;;
20348;SDS011;10332;50.208;18.988;2023-03-16T01:33:37;47.45;;;23.80;;
20348;SDS011;10332;50.208;18.988;2023-03-16T01:36:06;52.33;;;25.30;;
20348;SDS011;10332;50.208;18.988;2023-03-16T01:38:39;43.43;;;22.63;;
20348;SDS011;10332;50.208;18.988;2023-03-16T01:41:08;52.90;;;26.97;;
20348;SDS011;10332;50.208;18.988;2023-03-16T01:43:37;49.23;;;23.93;;
20348;SDS011;10332;50.208;18.988;2023-03-16T01:46:10;44.57;;;21.87;;
20348;SDS011;10332;50.208;18.988;2023-03-16T01:48:54;49.40;;;24.37;;
20348;SDS011;10332;50.208;18.988;2023-03-16T01:51:55;45.70;;;21.57;;
20348;SDS011;10332;50.208;18.988;2023-03-16T01:54:35;44.33;;;21.27;;
20348;SDS011;10332;50.208;18.988;2023-03-16T01:59:49;38.67;;;19.53;;
20348;SDS011;10332;50.208;18.988;2023-03-16T02:02:21;34.17;;;17.10;;
20348;SDS011;10332;50.208;18.988;2023-03-16T02:07:38;50.27;;;23.50;;
20348;SDS011;10332;50.208;18.988;2023-03-16T02:10:13;42.67;;;21.37;;
20348;SDS011;10332;50.208;18.988;2023-03-16T02:12:44;37.13;;;19.17;;
20348;SDS011;10332;50.208;18.988;2023-03-16T02:15:12;46.03;;;22.97;;
20348;SDS011;10332;50.208;18.988;2023-03-16T02:17:42;44.53;;;23.10;;
20348;SDS011;10332;50.208;18.988;2023-03-16T02:22:45;36.67;;;19.27;;
20348;SDS011;10332;50.208;18.988;2023-03-16T02:25:21;41.87;;;20.03;;
20348;SDS011;10332;50.208;18.988;2023-03-16T02:28:04;41.80;;;22.20;;
20348;SDS011;10332;50.208;18.988;2023-03-16T02:30:46;39.63;;;22.00;;
20348;SDS011;10332;50.208;18.988;2023-03-16T02:33:15;40.37;;;20.83;;
20348;SDS011;10332;50.208;18.988;2023-03-16T02:35:44;32.73;;;17.23;;
20348;SDS011;10332;50.208;18.988;2023-03-16T02:38:12;42.70;;;22.53;;
20348;SDS011;10332;50.208;18.988;2023-03-16T02:40:40;45.07;;;21.80;;
20348;SDS011;10332;50.208;18.988;2023-03-16T02:45:44;67.93;;;28.73;;
20348;SDS011;10332;50.208;18.988;2023-03-16T02:48:19;68.70;;;32.23;;
20348;SDS011;10332;50.208;18.988;2023-03-16T02:50:58;59.70;;;25.70;;
20348;SDS011;10332;50.208;18.988;2023-03-16T02:53:25;49.60;;;24.33;;
20348;SDS011;10332;50.208;18.988;2023-03-16T02:55:53;46.93;;;22.23;;
20348;SDS011;10332;50.208;18.988;2023-03-16T02:58:21;53.80;;;26.37;;
20348;SDS011;10332;50.208;18.988;2023-03-16T03:00:48;47.20;;;24.07;;
20348;SDS011;10332;50.208;18.988;2023-03-16T03:03:16;51.37;;;24.97;;
20348;SDS011;10332;50.208;18.988;2023-03-16T03:05:44;57.67;;;28.97;;
20348;SDS011;10332;50.208;18.988;2023-03-16T03:08:12;55.67;;;31.33;;
20348;SDS011;10332;50.208;18.988;2023-03-16T03:10:39;62.50;;;30.73;;
20348;SDS011;10332;50.208;18.988;2023-03-16T03:13:07;51.70;;;27.30;;
20348;SDS011;10332;50.208;18.988;2023-03-16T03:15:34;42.73;;;23.93;;
20348;SDS011;10332;50.208;18.988;2023-03-16T03:18:02;52.00;;;26.20;;
20348;SDS011;10332;50.208;18.988;2023-03-16T03:20:29;45.30;;;24.70;;
20348;SDS011;10332;50.208;18.988;2023-03-16T03:22:57;47.73;;;25.70;;
20348;SDS011;10332;50.208;18.988;2023-03-16T03:25:24;54.70;;;27.63;;
20348;SDS011;10332;50.208;18.988;2023-03-16T03:27:52;54.13;;;29.03;;
20348;SDS011;10332;50.208;18.988;2023-03-16T03:30:21;45.03;;;24.60;;
20348;SDS011;10332;50.208;18.988;2023-03-16T03:32:50;45.00;;;25.13;;
20348;SDS011;10332;50.208;18.988;2023-03-16T03:35:18;56.37;;;30.70;;
20348;SDS011;10332;50.208;18.988;2023-03-16T03:37:47;44.27;;;24.67;;
20348;SDS011;10332;50.208;18.988;2023-03-16T03:40:16;48.10;;;26.87;;
20348;SDS011;10332;50.208;18.988;2023-03-16T03:42:45;46.27;;;24.50;;
20348;SDS011;10332;50.208;18.988;2023-03-16T03:45:14;48.83;;;25.07;;
20348;SDS011;10332;50.208;18.988;2023-03-16T03:47:42;47.07;;;26.00;;
20348;SDS011;10332;50.208;18.988;2023-03-16T03:50:10;46.10;;;24.43;;
20348;SDS011;10332;50.208;18.988;2023-03-16T03:52:39;43.03;;;23.93;;
20348;SDS011;10332;50.208;18.988;2023-03-16T03:55:07;40.93;;;23.00;;
20348;SDS011;10332;50.208;18.988;2023-03-16T03:57:36;47.40;;;24.23;;
20348;SDS011;10332;50.208;18.988;2023-03-16T04:00:04;46.13;;;24.40;;
20348;SDS011;10332;50.208;18.988;2023-03-16T04:02:36;44.40;;;23.80;;
20348;SDS011;10332;50.208;18.988;2023-03-16T04:05:04;40.57;;;23.87;;
20348;SDS011;10332;50.208;18.988;2023-03-16T04:07:33;42.43;;;23.83;;
20348;SDS011;10332;50.208;18.988;2023-03-16T04:10:00;47.93;;;23.70;;
20348;SDS011;10332;50.208;18.988;2023-03-16T04:12:28;45.47;;;24.20;;
20348;SDS011;10332;50.208;18.988;2023-03-16T04:14:56;47.47;;;26.00;;
20348;SDS011;10332;50.208;18.988;2023-03-16T04:17:23;44.60;;;24.00;;
20348;SDS011;10332;50.208;18.988;2023-03-16T04:19:51;41.13;;;23.97;;
20348;SDS011;10332;50.208;18.988;2023-03-16T04:22:18;45.70;;;24.87;;
20348;SDS011;10332;50.208;18.988;2023-03-16T04:24:48;45.17;;;24.73;;
20348;SDS011;10332;50.208;18.988;2023-03-16T04:27:17;48.17;;;26.47;;
20348;SDS011;10332;50.208;18.988;2023-03-16T04:29:45;43.37;;;24.03;;
20348;SDS011;10332;50.208;18.988;2023-03-16T04:32:12;49.83;;;27.47;;
20348;SDS011;10332;50.208;18.988;2023-03-16T04:34:40;44.70;;;26.07;;
20348;SDS011;10332;50.208;18.988;2023-03-16T04:37:09;51.40;;;29.53;;
20348;SDS011;10332;50.208;18.988;2023-03-16T04:39:37;49.23;;;27.43;;
20348;SDS011;10332;50.208;18.988;2023-03-16T04:42:05;47.73;;;26.10;;
20348;SDS011;10332;50.208;18.988;2023-03-16T04:44:32;57.03;;;30.67;;
20348;SDS011;10332;50.208;18.988;2023-03-16T04:47:03;38.10;;;23.20;;
20348;SDS011;10332;50.208;18.988;2023-03-16T04:49:30;56.78;;;31.10;;
20348;SDS011;10332;50.208;18.988;2023-03-16T04:52:07;51.73;;;27.60;;
20348;SDS011;10332;50.208;18.988;2023-03-16T04:54:35;41.43;;;23.57;;
20348;SDS011;10332;50.208;18.988;2023-03-16T04:57:02;44.00;;;24.77;;
20348;SDS011;10332;50.208;18.988;2023-03-16T04:59:31;49.53;;;27.60;;
20348;SDS011;10332;50.208;18.988;2023-03-16T05:01:58;46.63;;;26.47;;
20348;SDS011;10332;50.208;18.988;2023-03-16T05:04:26;43.77;;;23.57;;
20348;SDS011;10332;50.208;18.988;2023-03-16T05:06:54;47.47;;;26.40;;
20348;SDS011;10332;50.208;18.988;2023-03-16T05:09:21;54.03;;;29.10;;
20348;SDS011;10332;50.208;18.988;2023-03-16T05:11:48;45.00;;;26.80;;
20348;SDS011;10332;50.208;18.988;2023-03-16T05:14:16;47.93;;;26.10;;
20348;SDS011;10332;50.208;18.988;2023-03-16T05:16:43;48.43;;;28.27;;
20348;SDS011;10332;50.208;18.988;2023-03-16T05:19:11;46.80;;;26.97;;
20348;SDS011;10332;50.208;18.988;2023-03-16T05:21:38;50.97;;;28.00;;
20348;SDS011;10332;50.208;18.988;2023-03-16T05:24:06;57.23;;;31.30;;
20348;SDS011;10332;50.208;18.988;2023-03-16T05:26:34;55.23;;;32.40;;
20348;SDS011;10332;50.208;18.988;2023-03-16T05:29:01;49.13;;;28.50;;
20348;SDS011;10332;50.208;18.988;2023-03-16T05:31:29;52.70;;;32.10;;
20348;SDS011;10332;50.208;18.988;2023-03-16T05:34:00;47.53;;;27.77;;
20348;SDS011;10332;50.208;18.988;2023-03-16T05:36:28;64.47;;;33.37;;
20348;SDS011;10332;50.208;18.988;2023-03-16T05:38:55;71.00;;;40.93;;
20348;SDS011;10332;50.208;18.988;2023-03-16T05:41:24;90.33;;;54.50;;
20348;SDS011;10332;50.208;18.988;2023-03-16T05:43:51;81.83;;;46.60;;
20348;SDS011;10332;50.208;18.988;2023-03-16T05:46:18;85.35;;;48.35;;
20348;SDS011;10332;50.208;18.988;2023-03-16T05:48:46;132.13;;;66.73;;
20348;SDS011;10332;50.208;18.988;2023-03-16T05:51:14;112.30;;;60.57;;
20348;SDS011;10332;50.208;18.988;2023-03-16T05:53:41;101.27;;;51.97;;
20348;SDS011;10332;50.208;18.988;2023-03-16T05:56:12;91.27;;;47.07;;
20348;SDS011;10332;50.208;18.988;2023-03-16T05:58:39;84.30;;;41.97;;
20348;SDS011;10332;50.208;18.988;2023-03-16T06:01:08;78.77;;;40.73;;
20348;SDS011;10332;50.208;18.988;2023-03-16T06:03:36;60.20;;;31.60;;
20348;SDS011;10332;50.208;18.988;2023-03-16T06:06:04;63.70;;;33.57;;
20348;SDS011;10332;50.208;18.988;2023-03-16T06:08:31;63.03;;;34.83;;
20348;SDS011;10332;50.208;18.988;2023-03-16T06:10:59;62.77;;;32.17;;
20348;SDS011;10332;50.208;18.988;2023-03-16T06:13:26;59.87;;;32.93;;
20348;SDS011;10332;50.208;18.988;2023-03-16T06:15:54;63.30;;;31.73;;
20348;SDS011;10332;50.208;18.988;2023-03-16T06:18:21;64.47;;;33.43;;
20348;SDS011;10332;50.208;18.988;2023-03-16T06:20:49;54.17;;;30.53;;
20348;SDS011;10332;50.208;18.988;2023-03-16T06:23:16;57.40;;;31.93;;
20348;SDS011;10332;50.208;18.988;2023-03-16T06:25:46;56.80;;;29.67;;
20348;SDS011;10332;50.208;18.988;2023-03-16T06:28:14;56.03;;;30.17;;
20348;SDS011;10332;50.208;18.988;2023-03-16T06:30:42;59.50;;;31.07;;
20348;SDS011;10332;50.208;18.988;2023-03-16T06:33:09;61.08;;;32.90;;
20348;SDS011;10332;50.208;18.988;2023-03-16T06:35:37;55.43;;;29.83;;
20348;SDS011;10332;50.208;18.988;2023-03-16T06:38:04;59.87;;;31.67;;
20348;SDS011;10332;50.208;18.988;2023-03-16T06:40:32;54.33;;;30.87;;
20348;SDS011;10332;50.208;18.988;2023-03-16T06:42:59;54.30;;;31.53;;
20348;SDS011;10332;50.208;18.988;2023-03-16T06:45:27;55.07;;;31.77;;
20348;SDS011;10332;50.208;18.988;2023-03-16T06:47:55;56.30;;;31.43;;
20348;SDS011;10332;50.208;18.988;2023-03-16T06:50:23;58.80;;;31.07;;
20348;SDS011;10332;50.208;18.988;2023-03-16T06:52:50;56.87;;;28.70;;
20348;SDS011;10332;50.208;18.988;2023-03-16T06:55:18;53.07;;;27.93;;
20348;SDS011;10332;50.208;18.988;2023-03-16T06:57:45;50.27;;;28.67;;
20348;SDS011;10332;50.208;18.988;2023-03-16T07:00:13;53.10;;;27.97;;
20348;SDS011;10332;50.208;18.988;2023-03-16T07:02:41;51.77;;;29.30;;
20348;SDS011;10332;50.208;18.988;2023-03-16T07:05:09;54.40;;;30.37;;
20348;SDS011;10332;50.208;18.988;2023-03-16T07:07:40;51.13;;;29.70;;
20348;SDS011;10332;50.208;18.988;2023-03-16T07:10:13;52.67;;;28.93;;
20348;SDS011;10332;50.208;18.988;2023-03-16T07:12:43;49.55;;;27.63;;
20348;SDS011;10332;50.208;18.988;2023-03-16T07:15:11;47.33;;;27.23;;
20348;SDS011;10332;50.208;18.988;2023-03-16T07:17:39;49.78;;;27.33;;
20348;SDS011;10332;50.208;18.988;2023-03-16T07:20:08;47.88;;;27.85;;
20348;SDS011;10332;50.208;18.988;2023-03-16T07:22:38;46.33;;;25.42;;
20348;SDS011;10332;50.208;18.988;2023-03-16T07:25:07;46.00;;;25.20;;
20348;SDS011;10332;50.208;18.988;2023-03-16T07:27:36;47.17;;;25.70;;
20348;SDS011;10332;50.208;18.988;2023-03-16T07:30:04;46.72;;;26.30;;
20348;SDS011;10332;50.208;18.988;2023-03-16T07:32:32;46.30;;;26.63;;
20348;SDS011;10332;50.208;18.988;2023-03-16T07:35:00;46.22;;;26.77;;
20348;SDS011;10332;50.208;18.988;2023-03-16T07:37:27;48.33;;;25.58;;
20348;SDS011;10332;50.208;18.988;2023-03-16T07:39:55;43.78;;;25.42;;
20348;SDS011;10332;50.208;18.988;2023-03-16T07:42:22;38.53;;;22.58;;
20348;SDS011;10332;50.208;18.988;2023-03-16T07:44:50;41.13;;;22.90;;
20348;SDS011;10332;50.208;18.988;2023-03-16T07:47:17;39.17;;;22.83;;
20348;SDS011;10332;50.208;18.988;2023-03-16T07:49:45;34.95;;;22.38;;
20348;SDS011;10332;50.208;18.988;2023-03-16T07:52:12;30.77;;;19.60;;
20348;SDS011;10332;50.208;18.988;2023-03-16T07:54:40;30.48;;;18.38;;
20348;SDS011;10332;50.208;18.988;2023-03-16T07:57:10;35.70;;;21.40;;
20348;SDS011;10332;50.208;18.988;2023-03-16T07:59:38;32.03;;;20.05;;
20348;SDS011;10332;50.208;18.988;2023-03-16T08:02:08;32.65;;;21.45;;
20348;SDS011;10332;50.208;18.988;2023-03-16T08:04:42;32.42;;;19.13;;
20348;SDS011;10332;50.208;18.988;2023-03-16T08:07:11;30.50;;;18.52;;
20348;SDS011;10332;50.208;18.988;2023-03-16T08:09:40;30.17;;;18.02;;
20348;SDS011;10332;50.208;18.988;2023-03-16T08:12:09;25.73;;;16.63;;
20348;SDS011;10332;50.208;18.988;2023-03-16T08:14:37;28.80;;;18.33;;
20348;SDS011;10332;50.208;18.988;2023-03-16T08:17:05;28.60;;;17.95;;
20348;SDS011;10332;50.208;18.988;2023-03-16T08:19:33;25.77;;;17.30;;
20348;SDS011;10332;50.208;18.988;2023-03-16T08:22:00;33.30;;;19.25;;
20348;SDS011;10332;50.208;18.988;2023-03-16T08:24:29;34.55;;;22.30;;
20348;SDS011;10332;50.208;18.988;2023-03-16T08:26:58;38.80;;;25.15;;
20348;SDS011;10332;50.208;18.988;2023-03-16T08:29:27;30.00;;;18.83;;
20348;SDS011;10332;50.208;18.988;2023-03-16T08:31:54;22.17;;;15.07;;
20348;SDS011;10332;50.208;18.988;2023-03-16T08:34:23;23.17;;;14.40;;
20348;SDS011;10332;50.208;18.988;2023-03-16T08:36:52;23.98;;;14.70;;
20348;SDS011;10332;50.208;18.988;2023-03-16T08:39:21;20.45;;;13.98;;
20348;SDS011;10332;50.208;18.988;2023-03-16T08:41:48;25.13;;;14.27;;
20348;SDS011;10332;50.208;18.988;2023-03-16T08:44:16;20.63;;;13.30;;
20348;SDS011;10332;50.208;18.988;2023-03-16T08:46:45;22.70;;;14.60;;
20348;SDS011;10332;50.208;18.988;2023-03-16T08:49:13;23.92;;;14.00;;
20348;SDS011;10332;50.208;18.988;2023-03-16T08:51:40;18.58;;;12.88;;
20348;SDS011;10332;50.208;18.988;2023-03-16T08:54:10;21.95;;;13.18;;
20348;SDS011;10332;50.208;18.988;2023-03-16T08:56:38;16.85;;;10.85;;
20348;SDS011;10332;50.208;18.988;2023-03-16T08:59:06;16.05;;;10.70;;
20348;SDS011;10332;50.208;18.988;2023-03-16T09:01:48;18.90;;;12.32;;
20348;SDS011;10332;50.208;18.988;2023-03-16T09:04:16;16.23;;;11.00;;
20348;SDS011;10332;50.208;18.988;2023-03-16T09:06:44;14.73;;;10.25;;
20348;SDS011;10332;50.208;18.988;2023-03-16T09:09:28;12.05;;;8.00;;
20348;SDS011;10332;50.208;18.988;2023-03-16T09:11:56;12.45;;;7.95;;
20348;SDS011;10332;50.208;18.988;2023-03-16T09:14:24;12.82;;;8.63;;
20348;SDS011;10332;50.208;18.988;2023-03-16T09:16:52;10.80;;;6.90;;
20348;SDS011;10332;50.208;18.988;2023-03-16T09:19:20;12.25;;;6.55;;
20348;SDS011;10332;50.208;18.988;2023-03-16T09:21:48;9.23;;;7.32;;
20348;SDS011;10332;50.208;18.988;2023-03-16T09:24:16;10.65;;;7.88;;
20348;SDS011;10332;50.208;18.988;2023-03-16T09:26:43;9.65;;;7.38;;
20348;SDS011;10332;50.208;18.988;2023-03-16T09:29:11;10.88;;;6.60;;
20348;SDS011;10332;50.208;18.988;2023-03-16T09:31:40;9.20;;;6.38;;
20348;SDS011;10332;50.208;18.988;2023-03-16T09:34:09;12.43;;;7.00;;
20348;SDS011;10332;50.208;18.988;2023-03-16T09:36:37;15.52;;;8.93;;
20348;SDS011;10332;50.208;18.988;2023-03-16T09:39:05;14.80;;;9.73;;
20348;SDS011;10332;50.208;18.988;2023-03-16T09:41:54;16.17;;;10.38;;
20348;SDS011;10332;50.208;18.988;2023-03-16T09:47:36;12.35;;;8.13;;
20348;SDS011;10332;50.208;18.988;2023-03-16T09:50:10;11.80;;;6.85;;
20348;SDS011;10332;50.208;18.988;2023-03-16T09:52:55;8.68;;;5.80;;
20348;SDS011;10332;50.208;18.988;2023-03-16T09:55:54;10.88;;;6.25;;
20348;SDS011;10332;50.208;18.988;2023-03-16T09:58:42;7.70;;;5.30;;
20348;SDS011;10332;50.208;18.988;2023-03-16T10:06:25;9.23;;;5.93;;
20348;SDS011;10332;50.208;18.988;2023-03-16T10:11:48;9.13;;;5.57;;
20348;SDS011;10332;50.208;18.988;2023-03-16T10:17:20;9.13;;;5.20;;
20348;SDS011;10332;50.208;18.988;2023-03-16T10:19:58;7.43;;;4.80;;
20348;SDS011;10332;50.208;18.988;2023-03-16T10:22:50;10.00;;;5.38;;
20348;SDS011;10332;50.208;18.988;2023-03-16T10:27:58;9.07;;;4.97;;
20348;SDS011;10332;50.208;18.988;2023-03-16T10:30:29;7.75;;;4.57;;
20348;SDS011;10332;50.208;18.988;2023-03-16T10:38:51;6.10;;;3.97;;
20348;SDS011;10332;50.208;18.988;2023-03-16T10:41:27;4.32;;;3.28;;
20348;SDS011;10332;50.208;18.988;2023-03-16T10:47:03;5.03;;;3.25;;
20348;SDS011;10332;50.208;18.988;2023-03-16T10:52:14;6.45;;;3.90;;
20348;SDS011;10332;50.208;18.988;2023-03-16T10:54:56;5.88;;;4.15;;
20348;SDS011;10332;50.208;18.988;2023-03-16T10:57:36;5.80;;;3.70;;
20348;SDS011;10332;50.208;18.988;2023-03-16T11:02:39;6.45;;;4.55;;
20348;SDS011;10332;50.208;18.988;2023-03-16T11:05:23;5.00;;;3.10;;
20348;SDS011;10332;50.208;18.988;2023-03-16T11:08:11;5.40;;;3.17;;
20348;SDS011;10332;50.208;18.988;2023-03-16T11:10:53;5.82;;;3.17;;
20348;SDS011;10332;50.208;18.988;2023-03-16T11:13:29;4.93;;;3.35;;
20348;SDS011;10332;50.208;18.988;2023-03-16T11:16:05;6.95;;;3.88;;
20348;SDS011;10332;50.208;18.988;2023-03-16T11:18:51;4.90;;;2.65;;
20348;SDS011;10332;50.208;18.988;2023-03-16T11:24:44;5.93;;;2.58;;
20348;SDS011;10332;50.208;18.988;2023-03-16T11:27:25;6.85;;;3.58;;
20348;SDS011;10332;50.208;18.988;2023-03-16T11:33:01;5.53;;;3.17;;
20348;SDS011;10332;50.208;18.988;2023-03-16T11:35:38;4.68;;;2.65;;
20348;SDS011;10332;50.208;18.988;2023-03-16T12:11:32;11.63;;;4.43;;
20348;SDS011;10332;50.208;18.988;2023-03-16T12:14:16;11.98;;;4.70;;
20348;SDS011;10332;50.208;18.988;2023-03-16T12:16:57;9.43;;;3.80;;
20348;SDS011;10332;50.208;18.988;2023-03-16T12:22:21;7.82;;;2.42;;
20348;SDS011;10332;50.208;18.988;2023-03-16T12:25:20;3.40;;;2.53;;
20348;SDS011;10332;50.208;18.988;2023-03-16T12:27:51;5.28;;;2.10;;
20348;SDS011;10332;50.208;18.988;2023-03-16T12:36:22;8.40;;;3.42;;
20348;SDS011;10332;50.208;18.988;2023-03-16T12:45:38;7.28;;;3.17;;
20348;SDS011;10332;50.208;18.988;2023-03-16T12:48:20;7.45;;;2.88;;
20348;SDS011;10332;50.208;18.988;2023-03-16T12:50:59;5.43;;;2.50;;
20348;SDS011;10332;50.208;18.988;2023-03-16T12:59:20;7.13;;;2.80;;
20348;SDS011;10332;50.208;18.988;2023-03-16T13:01:52;5.13;;;2.60;;
20348;SDS011;10332;50.208;18.988;2023-03-16T13:04:30;6.60;;;2.80;;
20348;SDS011;10332;50.208;18.988;2023-03-16T13:07:08;6.18;;;2.90;;
20348;SDS011;10332;50.208;18.988;2023-03-16T13:12:42;7.72;;;2.85;;
20348;SDS011;10332;50.208;18.988;2023-03-16T13:17:46;7.90;;;3.50;;
20348;SDS011;10332;50.208;18.988;2023-03-16T13:20:55;8.23;;;4.82;;
20348;SDS011;10332;50.208;18.988;2023-03-16T13:26:52;9.10;;;3.45;;
20348;SDS011;10332;50.208;18.988;2023-03-16T13:29:27;7.22;;;2.95;;
20348;SDS011;10332;50.208;18.988;2023-03-16T13:31:59;7.25;;;3.00;;
20348;SDS011;10332;50.208;18.988;2023-03-16T13:34:51;6.18;;;2.75;;
20348;SDS011;10332;50.208;18.988;2023-03-16T13:37:25;6.85;;;2.70;;
20348;SDS011;10332;50.208;18.988;2023-03-16T13:39:56;6.60;;;2.95;;
20348;SDS011;10332;50.208;18.988;2023-03-16T13:42:28;5.40;;;2.55;;
20348;SDS011;10332;50.208;18.988;2023-03-16T13:45:06;6.35;;;3.17;;
20348;SDS011;10332;50.208;18.988;2023-03-16T13:47:42;10.40;;;4.55;;
20348;SDS011;10332;50.208;18.988;2023-03-16T13:50:11;10.57;;;4.65;;
20348;SDS011;10332;50.208;18.988;2023-03-16T13:52:42;6.93;;;4.03;;
20348;SDS011;10332;50.208;18.988;2023-03-16T13:55:20;7.32;;;3.00;;
20348;SDS011;10332;50.208;18.988;2023-03-16T13:58:00;8.90;;;4.28;;
20348;SDS011;10332;50.208;18.988;2023-03-16T14:00:30;8.73;;;4.20;;
20348;SDS011;10332;50.208;18.988;2023-03-16T14:03:13;6.03;;;2.90;;
20348;SDS011;10332;50.208;18.988;2023-03-16T14:05:47;3.50;;;2.22;;
20348;SDS011;10332;50.208;18.988;2023-03-16T14:08:19;6.35;;;2.03;;
20348;SDS011;10332;50.208;18.988;2023-03-16T14:10:50;4.57;;;2.40;;
20348;SDS011;10332;50.208;18.988;2023-03-16T14:15:55;5.60;;;2.72;;
20348;SDS011;10332;50.208;18.988;2023-03-16T14:18:45;7.35;;;2.70;;
20348;SDS011;10332;50.208;18.988;2023-03-16T14:21:20;7.95;;;3.08;;
20348;SDS011;10332;50.208;18.988;2023-03-16T14:23:52;5.97;;;2.47;;
20348;SDS011;10332;50.208;18.988;2023-03-16T14:26:45;5.55;;;2.60;;
20348;SDS011;10332;50.208;18.988;2023-03-16T14:29:22;6.63;;;2.88;;
20348;SDS011;10332;50.208;18.988;2023-03-16T14:31:57;6.30;;;2.50;;
20348;SDS011;10332;50.208;18.988;2023-03-16T14:34:36;6.47;;;2.90;;
20348;SDS011;10332;50.208;18.988;2023-03-16T14:39:38;5.68;;;2.50;;
20348;SDS011;10332;50.208;18.988;2023-03-16T14:42:13;7.20;;;2.70;;
20348;SDS011;10332;50.208;18.988;2023-03-16T14:44:55;5.32;;;2.08;;
20348;SDS011;10332;50.208;18.988;2023-03-16T14:47:29;4.22;;;2.03;;
20348;SDS011;10332;50.208;18.988;2023-03-16T14:50:11;3.72;;;2.22;;
20348;SDS011;10332;50.208;18.988;2023-03-16T14:52:52;7.07;;;2.95;;
20348;SDS011;10332;50.208;18.988;2023-03-16T14:55:23;8.35;;;3.00;;
20348;SDS011;10332;50.208;18.988;2023-03-16T14:57:51;6.90;;;3.30;;
20348;SDS011;10332;50.208;18.988;2023-03-16T15:00:19;6.30;;;3.05;;
20348;SDS011;10332;50.208;18.988;2023-03-16T15:03:07;5.72;;;2.97;;
20348;SDS011;10332;50.208;18.988;2023-03-16T15:05:41;7.97;;;4.20;;
20348;SDS011;10332;50.208;18.988;2023-03-16T15:08:24;6.47;;;3.03;;
20348;SDS011;10332;50.208;18.988;2023-03-16T15:11:00;7.15;;;2.70;;
20348;SDS011;10332;50.208;18.988;2023-03-16T15:13:32;4.53;;;1.98;;
20348;SDS011;10332;50.208;18.988;2023-03-16T15:16:00;5.65;;;2.53;;
20348;SDS011;10332;50.208;18.988;2023-03-16T15:18:30;4.65;;;2.10;;
20348;SDS011;10332;50.208;18.988;2023-03-16T15:20:59;4.90;;;2.33;;
20348;SDS011;10332;50.208;18.988;2023-03-16T15:23:28;4.32;;;2.00;;
20348;SDS011;10332;50.208;18.988;2023-03-16T15:25:57;6.05;;;2.58;;
20348;SDS011;10332;50.208;18.988;2023-03-16T15:28:26;6.10;;;2.80;;
20348;SDS011;10332;50.208;18.988;2023-03-16T15:30:55;8.10;;;3.25;;
20348;SDS011;10332;50.208;18.988;2023-03-16T15:33:24;13.07;;;3.28;;
20348;SDS011;10332;50.208;18.988;2023-03-16T15:35:56;8.85;;;3.50;;
20348;SDS011;10332;50.208;18.988;2023-03-16T15:38:31;7.05;;;2.80;;
20348;SDS011;10332;50.208;18.988;2023-03-16T15:41:12;9.23;;;4.03;;
20348;SDS011;10332;50.208;18.988;2023-03-16T15:43:39;9.32;;;4.15;;
20348;SDS011;10332;50.208;18.988;2023-03-16T15:46:08;8.27;;;3.75;;
20348;SDS011;10332;50.208;18.988;2023-03-16T15:48:35;8.15;;;3.45;;
20348;SDS011;10332;50.208;18.988;2023-03-16T15:53:46;6.63;;;2.75;;
20348;SDS011;10332;50.208;18.988;2023-03-16T15:56:33;6.45;;;3.10;;
20348;SDS011;10332;50.208;18.988;2023-03-16T15:59:18;6.32;;;2.83;;
20348;SDS011;10332;50.208;18.988;2023-03-16T16:01:48;7.40;;;3.22;;
20348;SDS011;10332;50.208;18.988;2023-03-16T16:04:21;5.93;;;2.92;;
20348;SDS011;10332;50.208;18.988;2023-03-16T16:06:51;6.78;;;2.80;;
20348;SDS011;10332;50.208;18.988;2023-03-16T16:09:21;4.72;;;3.05;;
20348;SDS011;10332;50.208;18.988;2023-03-16T16:11:49;8.82;;;4.10;;
20348;SDS011;10332;50.208;18.988;2023-03-16T16:14:19;10.63;;;3.75;;
20348;SDS011;10332;50.208;18.988;2023-03-16T16:16:52;7.63;;;3.45;;
20348;SDS011;10332;50.208;18.988;2023-03-16T16:19:20;7.30;;;2.95;;
20348;SDS011;10332;50.208;18.988;2023-03-16T16:21:47;5.22;;;2.10;;
20348;SDS011;10332;50.208;18.988;2023-03-16T16:24:15;5.95;;;2.55;;
20348;SDS011;10332;50.208;18.988;2023-03-16T16:26:45;11.45;;;4.38;;
20348;SDS011;10332;50.208;18.988;2023-03-16T16:29:24;16.70;;;5.65;;
20348;SDS011;10332;50.208;18.988;2023-03-16T16:31:58;13.63;;;5.85;;
20348;SDS011;10332;50.208;18.988;2023-03-16T16:34:26;12.15;;;5.22;;
20348;SDS011;10332;50.208;18.988;2023-03-16T16:36:55;11.45;;;5.07;;
20348;SDS011;10332;50.208;18.988;2023-03-16T16:39:23;12.32;;;5.05;;
20348;SDS011;10332;50.208;18.988;2023-03-16T16:41:51;12.10;;;5.60;;